createdAt,value
2022-08-26T00:01:19.137Z,60.28
2022-08-26T00:03:55.769Z,60.43
2022-08-26T00:06:22.092Z,60.55
2022-08-26T00:08:49.009Z,60.56
2022-08-26T00:11:15.390Z,60.60
2022-08-26T00:13:56.907Z,60.75
2022-08-26T00:16:25.035Z,60.93
2022-08-26T00:18:52.462Z,60.88
2022-08-26T00:21:19.691Z,60.98
2022-08-26T00:23:46.330Z,61.15
2022-08-26T00:26:13.748Z,61.29
2022-08-26T00:28:40.605Z,61.19
2022-08-26T00:31:07.268Z,61.24
2022-08-26T00:33:33.849Z,61.37
2022-08-26T00:36:00.961Z,61.41
2022-08-26T00:38:27.560Z,61.52
2022-08-26T00:40:56.086Z,61.53
2022-08-26T00:43:24.846Z,61.60
2022-08-26T00:45:55.772Z,61.68
2022-08-26T00:48:24.806Z,61.79
2022-08-26T00:50:57.923Z,61.85
2022-08-26T00:53:28.537Z,62.12
2022-08-26T00:56:07.173Z,62.18
2022-08-26T00:58:37.110Z,62.21
2022-08-26T01:01:04.398Z,62.33
2022-08-26T01:03:33.588Z,62.38
2022-08-26T01:06:00.964Z,62.39
2022-08-26T01:08:27.464Z,62.45
2022-08-26T01:10:55.893Z,62.54
2022-08-26T01:13:22.614Z,62.55
2022-08-26T01:15:53.221Z,62.60
2022-08-26T01:18:19.943Z,62.73
2022-08-26T01:21:02.993Z,62.82
2022-08-26T01:23:37.423Z,62.92
2022-08-26T01:26:19.679Z,62.94
2022-08-26T01:28:50.596Z,63.00
2022-08-26T01:31:21.237Z,63.05
2022-08-26T01:34:01.363Z,63.15
2022-08-26T01:36:28.361Z,63.21
2022-08-26T01:38:54.744Z,63.35
2022-08-26T01:41:27.499Z,63.36
2022-08-26T01:43:56.609Z,63.45
2022-08-26T01:46:25.687Z,63.49
2022-08-26T01:48:54.660Z,63.55
2022-08-26T01:51:22.958Z,63.55
2022-08-26T01:53:50.057Z,63.62
2022-08-26T01:56:16.448Z,63.58
2022-08-26T01:58:46.694Z,63.75
2022-08-26T02:01:14.383Z,63.78
2022-08-26T02:04:02.972Z,63.72
2022-08-26T02:06:29.606Z,63.84
2022-08-26T02:08:59.672Z,63.88
2022-08-26T02:11:27.083Z,63.97
2022-08-26T02:13:57.693Z,63.93
2022-08-26T02:16:26.836Z,63.98
2022-08-26T02:18:53.762Z,64.06
2022-08-26T02:21:20.724Z,64.14
2022-08-26T02:23:47.141Z,64.28
2022-08-26T02:26:18.123Z,64.33
2022-08-26T02:28:48.891Z,64.44
2022-08-26T02:31:15.823Z,64.49
2022-08-26T02:33:43.181Z,64.58
2022-08-26T02:36:10.758Z,64.53
2022-08-26T02:38:39.756Z,64.58
2022-08-26T02:41:06.292Z,64.61
2022-08-26T02:43:34.421Z,64.66
2022-08-26T02:46:02.376Z,64.67
2022-08-26T02:48:29.351Z,64.73
2022-08-26T02:50:58.368Z,64.76
2022-08-26T02:53:25.545Z,64.80
2022-08-26T02:55:52.543Z,64.88
2022-08-26T02:58:20.044Z,64.92
2022-08-26T03:00:53.085Z,65.07
2022-08-26T03:03:22.481Z,65.14
2022-08-26T03:05:50.906Z,65.19
2022-08-26T03:08:17.564Z,65.34
2022-08-26T03:10:43.884Z,65.35
2022-08-26T03:13:10.366Z,65.46
2022-08-26T03:15:36.861Z,65.44
2022-08-26T03:18:04.604Z,65.45
2022-08-26T03:20:31.455Z,65.49
2022-08-26T03:22:57.770Z,65.57
2022-08-26T03:25:25.956Z,65.57
2022-08-26T03:27:52.702Z,65.53
2022-08-26T03:30:38.035Z,65.59
2022-08-26T03:33:04.911Z,65.65
2022-08-26T03:35:32.451Z,65.66
2022-08-26T03:37:59.143Z,65.77
2022-08-26T03:40:25.716Z,65.82
2022-08-26T03:42:55.576Z,65.85
2022-08-26T03:45:21.925Z,65.84
2022-08-26T03:47:48.511Z,65.85
2022-08-26T03:50:22.619Z,65.88
2022-08-26T03:52:51.448Z,65.99
2022-08-26T03:55:19.751Z,66.01
2022-08-26T03:57:50.919Z,66.09
2022-08-26T04:00:18.481Z,66.14
2022-08-26T04:02:48.058Z,66.12
2022-08-26T04:05:15.350Z,66.20
2022-08-26T04:07:42.724Z,66.37
2022-08-26T04:10:11.289Z,66.36
2022-08-26T04:12:38.535Z,66.48
2022-08-26T04:15:08.828Z,66.54
2022-08-26T04:17:35.845Z,66.45
2022-08-26T04:20:05.043Z,66.50
2022-08-26T04:22:33.380Z,66.55
2022-08-26T04:25:01.083Z,66.55
2022-08-26T04:27:27.455Z,66.52
2022-08-26T04:29:55.277Z,66.58
2022-08-26T04:32:21.963Z,66.64
2022-08-26T04:34:48.862Z,66.73
2022-08-26T04:37:15.683Z,66.57
2022-08-26T04:39:42.296Z,66.63
2022-08-26T04:42:10.750Z,66.63
2022-08-26T04:44:37.838Z,66.76
2022-08-26T04:47:05.925Z,66.71
2022-08-26T04:49:35.095Z,66.72
2022-08-26T04:52:04.780Z,66.67
2022-08-26T04:54:31.317Z,66.67
2022-08-26T04:56:57.880Z,66.70
2022-08-26T04:59:24.678Z,66.65
2022-08-26T05:01:55.585Z,66.78
2022-08-26T05:04:22.249Z,66.71
2022-08-26T05:06:49.170Z,66.59
2022-08-26T05:09:17.761Z,66.57
2022-08-26T05:11:45.326Z,66.42
2022-08-26T05:14:15.556Z,66.23
2022-08-26T05:16:41.990Z,66.19
2022-08-26T05:19:09.298Z,66.10
2022-08-26T05:21:35.884Z,66.06
2022-08-26T05:24:02.401Z,66.14
2022-08-26T05:26:31.245Z,65.79
2022-08-26T05:28:58.305Z,65.71
2022-08-26T05:31:28.514Z,65.82
2022-08-26T05:33:56.881Z,65.82
2022-08-26T05:36:26.919Z,65.52
2022-08-26T05:38:54.433Z,65.57
2022-08-26T05:41:34.483Z,65.49
2022-08-26T05:44:06.109Z,65.10
2022-08-26T05:46:33.763Z,64.99
2022-08-26T05:49:01.203Z,64.70
2022-08-26T05:51:29.225Z,64.35
2022-08-26T05:53:58.227Z,64.07
2022-08-26T05:56:26.679Z,63.44
2022-08-26T05:58:54.371Z,63.21
2022-08-26T06:01:24.987Z,62.94
2022-08-26T06:03:54.025Z,62.71
2022-08-26T06:06:27.355Z,62.61
2022-08-26T06:08:55.371Z,62.43
2022-08-26T06:11:24.748Z,62.14
2022-08-26T06:13:57.105Z,61.93
2022-08-26T06:16:27.810Z,61.61
2022-08-26T06:18:54.368Z,61.39
2022-08-26T06:21:22.813Z,61.02
2022-08-26T06:24:10.764Z,60.72
2022-08-26T06:26:37.502Z,60.49
2022-08-26T06:29:05.065Z,60.35
2022-08-26T06:31:33.702Z,59.97
2022-08-26T06:34:00.855Z,59.92
2022-08-26T06:36:29.976Z,59.54
2022-08-26T06:38:58.607Z,59.36
2022-08-26T06:41:25.171Z,59.20
2022-08-26T06:43:52.084Z,59.11
2022-08-26T06:46:21.010Z,58.71
2022-08-26T06:48:49.211Z,58.52
2022-08-26T06:51:22.440Z,58.11
2022-08-26T06:53:52.041Z,57.66
2022-08-26T06:56:23.928Z,57.24
2022-08-26T06:58:51.706Z,56.71
2022-08-26T07:01:21.469Z,56.22
2022-08-26T07:03:50.157Z,55.68
2022-08-26T07:06:18.845Z,55.36
2022-08-26T07:08:46.602Z,54.94
2022-08-26T07:11:14.574Z,54.60
2022-08-26T07:13:41.096Z,54.11
2022-08-26T07:16:12.398Z,53.83
2022-08-26T07:18:41.753Z,53.49
2022-08-26T07:21:14.212Z,52.87
2022-08-26T07:23:41.349Z,52.33
2022-08-26T07:26:12.426Z,51.80
2022-08-26T07:28:38.869Z,51.18
2022-08-26T07:31:07.396Z,50.80
2022-08-26T07:33:38.112Z,50.43
2022-08-26T07:36:07.704Z,49.73
2022-08-26T07:38:34.342Z,49.43
2022-08-26T07:41:01.301Z,48.96
2022-08-26T07:43:28.423Z,48.58
2022-08-26T07:45:56.129Z,48.63
2022-08-26T07:48:23.718Z,48.01
2022-08-26T07:50:52.006Z,47.60
2022-08-26T07:53:20.955Z,47.13
2022-08-26T07:55:48.763Z,46.66
2022-08-26T07:58:15.642Z,46.85
2022-08-26T08:00:42.573Z,46.42
2022-08-26T08:03:10.236Z,45.74
2022-08-26T08:05:37.004Z,45.29
2022-08-26T08:08:26.263Z,45.13
2022-08-26T08:10:55.471Z,45.18
2022-08-26T08:13:23.625Z,44.55
2022-08-26T08:15:50.425Z,43.88
2022-08-26T08:18:20.493Z,43.22
2022-08-26T08:21:04.835Z,43.18
2022-08-26T08:23:34.085Z,42.80
2022-08-26T08:26:06.140Z,42.73
2022-08-26T08:28:35.621Z,42.41
2022-08-26T08:31:02.643Z,42.01
2022-08-26T08:33:29.866Z,41.47
2022-08-26T08:35:57.623Z,41.25
2022-08-26T08:38:24.706Z,41.27
2022-08-26T08:40:51.104Z,40.94
2022-08-26T08:43:29.299Z,40.19
2022-08-26T08:45:58.805Z,40.22
2022-08-26T08:48:29.120Z,40.42
2022-08-26T08:51:21.425Z,38.43
2022-08-26T08:53:50.952Z,36.04
2022-08-26T08:56:31.664Z,34.42
2022-08-26T08:59:17.696Z,32.79
2022-08-26T09:01:52.477Z,30.61
2022-08-26T09:04:29.588Z,28.91
2022-08-26T09:06:59.245Z,26.99
2022-08-26T09:09:39.148Z,24.93
2022-08-26T09:12:12.091Z,22.98
2022-08-26T09:14:38.631Z,20.92
2022-08-26T09:17:24.708Z,19.53
2022-08-26T09:20:03.658Z,17.80
2022-08-26T09:22:33.835Z,16.35
2022-08-26T09:25:01.425Z,15.04
2022-08-26T09:27:50.540Z,14.72
2022-08-26T09:30:26.682Z,14.33
2022-08-26T09:33:01.826Z,14.84
2022-08-26T09:35:30.931Z,14.28
2022-08-26T09:37:58.154Z,14.16
2022-08-26T09:40:34.913Z,14.17
2022-08-26T09:43:07.079Z,13.61
2022-08-26T09:45:35.191Z,13.52
2022-08-26T09:48:02.703Z,13.63
2022-08-26T09:50:32.536Z,13.70
2022-08-26T09:53:12.823Z,13.56
2022-08-26T09:55:42.239Z,13.16
2022-08-26T09:58:13.927Z,13.06
2022-08-26T10:00:55.507Z,13.31
2022-08-26T10:03:28.615Z,12.85
2022-08-26T10:06:07.678Z,12.92
2022-08-26T10:08:47.428Z,12.82
2022-08-26T10:11:37.105Z,12.83
2022-08-26T10:14:12.251Z,12.82
2022-08-26T10:16:49.133Z,12.36
2022-08-26T10:19:24.980Z,12.09
2022-08-26T10:22:00.919Z,11.92
2022-08-26T10:24:46.584Z,12.05
2022-08-26T10:27:51.075Z,12.07
2022-08-26T10:30:22.411Z,11.73
2022-08-26T10:32:57.578Z,12.11
2022-08-26T10:35:26.374Z,12.13
2022-08-26T10:37:56.097Z,12.17
2022-08-26T10:40:40.809Z,12.60
2022-08-26T10:43:17.244Z,12.66
2022-08-26T10:45:50.539Z,12.88
2022-08-26T10:48:24.895Z,13.11
2022-08-26T10:50:51.464Z,12.96
2022-08-26T10:54:00.018Z,12.87
2022-08-26T10:56:39.905Z,13.12
2022-08-26T10:59:12.440Z,13.01
2022-08-26T11:01:51.122Z,13.69
2022-08-26T11:04:28.274Z,14.19
2022-08-26T11:07:29.584Z,14.31
2022-08-26T11:10:16.257Z,14.72
2022-08-26T11:12:44.667Z,14.70
2022-08-26T11:15:18.728Z,14.66
2022-08-26T11:17:50.735Z,14.60
2022-08-26T11:20:35.949Z,14.56
2022-08-26T11:23:23.385Z,14.43
2022-08-26T11:26:18.935Z,14.30
2022-08-26T11:29:03.043Z,14.35
2022-08-26T11:31:30.079Z,14.37
2022-08-26T11:34:08.718Z,14.32
2022-08-26T11:36:46.284Z,14.77
2022-08-26T11:39:27.861Z,14.90
2022-08-26T11:42:15.909Z,15.25
2022-08-26T11:44:49.565Z,15.16
2022-08-26T11:47:26.076Z,15.60
2022-08-26T11:50:09.832Z,15.90
2022-08-26T11:52:36.626Z,16.36
2022-08-26T11:55:14.847Z,16.71
2022-08-26T11:57:53.545Z,16.69
2022-08-26T12:00:22.512Z,17.08
2022-08-26T12:02:50.961Z,17.52
2022-08-26T12:05:30.917Z,17.95
2022-08-26T12:08:02.400Z,18.10
2022-08-26T12:10:32.005Z,18.22
2022-08-26T12:13:00.502Z,18.47
2022-08-26T12:15:29.743Z,18.76
2022-08-26T12:17:58.606Z,18.95
2022-08-26T12:20:47.621Z,19.29
2022-08-26T12:23:45.393Z,19.43
2022-08-26T12:26:29.200Z,19.09
2022-08-26T12:29:18.086Z,19.39
2022-08-26T12:31:47.433Z,19.56
2022-08-26T12:34:18.631Z,19.64
2022-08-26T12:36:55.082Z,19.60
2022-08-26T12:39:37.249Z,19.71
2022-08-26T12:42:20.160Z,19.69
2022-08-26T12:44:53.934Z,19.70
2022-08-26T12:47:32.704Z,19.60
2022-08-26T12:50:43.931Z,19.63
2022-08-26T12:53:10.339Z,19.58
2022-08-26T12:56:24.074Z,19.55
2022-08-26T12:59:10.300Z,19.81
2022-08-26T13:01:42.342Z,19.98
2022-08-26T13:04:45.508Z,20.07
2022-08-26T13:07:23.625Z,20.40
2022-08-26T13:09:52.420Z,20.58
2022-08-26T13:12:34.280Z,20.70
2022-08-26T13:15:01.771Z,21.06
2022-08-26T13:17:29.172Z,21.24
2022-08-26T13:20:02.731Z,21.42
2022-08-26T13:22:30.786Z,21.47
2022-08-26T13:24:57.346Z,21.59
2022-08-26T13:27:26.471Z,22.00
2022-08-26T13:29:54.169Z,22.17
2022-08-26T13:32:21.883Z,22.39
2022-08-26T13:34:51.463Z,22.30
2022-08-26T13:37:21.565Z,22.46
2022-08-26T13:40:00.631Z,22.77
2022-08-26T13:42:27.267Z,22.78
2022-08-26T13:44:57.353Z,22.99
2022-08-26T13:47:25.221Z,23.07
2022-08-26T13:49:53.721Z,23.13
2022-08-26T13:52:27.294Z,23.22
2022-08-26T13:54:59.452Z,23.57
2022-08-26T13:57:27.616Z,23.17
2022-08-26T13:59:55.849Z,23.37
2022-08-26T14:02:22.359Z,23.37
2022-08-26T14:04:48.758Z,23.69
2022-08-26T14:07:15.678Z,23.55
2022-08-26T14:09:41.950Z,23.64
2022-08-26T14:12:08.444Z,23.85
2022-08-26T14:14:34.883Z,23.94
2022-08-26T14:17:01.486Z,23.96
2022-08-26T14:19:29.378Z,24.24
2022-08-26T14:21:56.397Z,24.39
2022-08-26T14:24:23.093Z,24.34
2022-08-26T14:26:49.718Z,24.28
2022-08-26T14:29:16.805Z,24.09
2022-08-26T14:31:44.917Z,24.21
2022-08-26T14:34:12.415Z,24.39
2022-08-26T14:36:38.743Z,24.43
2022-08-26T14:39:08.795Z,24.21
2022-08-26T14:41:40.902Z,24.22
2022-08-26T14:44:10.761Z,24.49
2022-08-26T14:46:42.517Z,24.49
2022-08-26T14:49:10.669Z,24.36
2022-08-26T14:51:37.994Z,24.53
2022-08-26T14:54:14.112Z,24.54
2022-08-26T14:56:42.629Z,24.37
2022-08-26T14:59:09.719Z,24.36
2022-08-26T15:01:36.327Z,24.33
2022-08-26T15:04:02.956Z,24.28
2022-08-26T15:06:31.192Z,24.39
2022-08-26T15:08:58.344Z,24.56
2022-08-26T15:11:24.860Z,24.43
2022-08-26T15:13:52.404Z,24.67
2022-08-26T15:16:18.800Z,24.74
2022-08-26T15:18:45.273Z,24.68
2022-08-26T15:21:11.820Z,24.64
2022-08-26T15:23:38.769Z,24.92
2022-08-26T15:26:10.619Z,25.31
2022-08-26T15:28:37.963Z,25.04
2022-08-26T15:31:05.962Z,25.04
2022-08-26T15:33:34.380Z,25.23
2022-08-26T15:36:01.677Z,25.04
2022-08-26T15:38:33.036Z,25.42
2022-08-26T15:41:03.145Z,25.60
2022-08-26T15:43:30.471Z,25.44
2022-08-26T15:45:57.081Z,25.64
2022-08-26T15:48:24.125Z,25.91
2022-08-26T15:50:56.649Z,25.78
2022-08-26T15:53:23.849Z,25.78
2022-08-26T15:55:53.290Z,26.13
2022-08-26T15:58:22.312Z,26.12
2022-08-26T16:00:48.596Z,26.33
2022-08-26T16:03:14.941Z,26.25
2022-08-26T16:05:45.276Z,26.40
2022-08-26T16:08:13.367Z,26.50
2022-08-26T16:10:47.774Z,26.51
2022-08-26T16:13:18.420Z,26.60
2022-08-26T16:15:45.510Z,26.59
2022-08-26T16:18:13.228Z,26.90
2022-08-26T16:20:50.134Z,26.83
2022-08-26T16:23:34.688Z,27.00
2022-08-26T16:26:08.264Z,27.15
2022-08-26T16:28:37.882Z,27.53
2022-08-26T16:31:05.877Z,27.59
2022-08-26T16:33:32.723Z,27.77
2022-08-26T16:35:59.052Z,27.89
2022-08-26T16:38:25.775Z,28.11
2022-08-26T16:40:52.740Z,28.15
2022-08-26T16:43:19.150Z,28.46
2022-08-26T16:45:45.537Z,28.65
2022-08-26T16:48:12.104Z,28.82
2022-08-26T16:50:40.138Z,29.04
2022-08-26T16:53:07.487Z,29.16
2022-08-26T16:55:34.736Z,29.21
2022-08-26T16:58:01.753Z,29.48
2022-08-26T17:00:30.807Z,29.64
2022-08-26T17:02:58.653Z,29.89
2022-08-26T17:05:26.348Z,29.98
2022-08-26T17:07:54.721Z,30.01
2022-08-26T17:10:22.633Z,30.14
2022-08-26T17:12:49.610Z,30.40
2022-08-26T17:15:17.137Z,30.54
2022-08-26T17:17:44.254Z,30.74
2022-08-26T17:20:13.773Z,30.91
2022-08-26T17:22:46.608Z,31.03
2022-08-26T17:25:23.769Z,31.21
2022-08-26T17:27:50.306Z,31.35
2022-08-26T17:30:17.648Z,31.51
2022-08-26T17:32:45.795Z,31.75
2022-08-26T17:35:13.459Z,31.99
2022-08-26T17:37:40.258Z,32.27
2022-08-26T17:40:09.436Z,32.54
2022-08-26T17:42:37.479Z,32.93
2022-08-26T17:45:05.401Z,33.08
2022-08-26T17:47:33.338Z,33.56
2022-08-26T17:50:00.738Z,33.87
2022-08-26T17:52:28.548Z,34.20
2022-08-26T17:54:55.679Z,34.68
2022-08-26T17:57:23.295Z,34.98
2022-08-26T17:59:49.982Z,35.22
2022-08-26T18:02:20.411Z,35.59
2022-08-26T18:04:46.936Z,36.02
2022-08-26T18:07:13.430Z,36.41
2022-08-26T18:09:40.726Z,36.63
2022-08-26T18:12:09.731Z,37.05
2022-08-26T18:14:36.718Z,37.59
2022-08-26T18:17:03.408Z,37.89
2022-08-26T18:19:30.691Z,38.14
2022-08-26T18:21:57.297Z,38.46
2022-08-26T18:24:24.816Z,38.83
2022-08-26T18:26:51.314Z,39.18
2022-08-26T18:29:18.978Z,39.41
2022-08-26T18:31:47.733Z,39.75
2022-08-26T18:34:15.964Z,40.33
2022-08-26T18:36:43.406Z,40.63
2022-08-26T18:39:12.000Z,40.92
2022-08-26T18:41:49.893Z,40.98
2022-08-26T18:44:18.007Z,41.55
2022-08-26T18:46:45.616Z,41.79
2022-08-26T18:49:13.760Z,42.14
2022-08-26T18:51:40.767Z,42.31
2022-08-26T18:54:07.704Z,42.74
2022-08-26T18:56:36.073Z,42.96
2022-08-26T18:59:03.912Z,43.25
2022-08-26T19:01:31.023Z,43.49
2022-08-26T19:03:59.026Z,43.90
2022-08-26T19:06:26.856Z,43.99
2022-08-26T19:08:53.610Z,44.20
2022-08-26T19:11:31.566Z,44.72
2022-08-26T19:14:00.690Z,44.91
2022-08-26T19:16:28.136Z,45.10
2022-08-26T19:18:55.384Z,45.19
2022-08-26T19:21:22.540Z,45.24
2022-08-26T19:23:49.432Z,45.79
2022-08-26T19:26:16.515Z,46.14
2022-08-26T19:28:43.109Z,46.16
2022-08-26T19:31:11.957Z,46.28
2022-08-26T19:33:39.873Z,46.59
2022-08-26T19:36:11.453Z,46.74
2022-08-26T19:38:41.726Z,47.14
2022-08-26T19:41:20.595Z,47.19
2022-08-26T19:43:47.259Z,47.65
2022-08-26T19:46:19.856Z,47.89
2022-08-26T19:48:47.478Z,48.11
2022-08-26T19:51:18.335Z,48.10
2022-08-26T19:53:46.086Z,48.17
2022-08-26T19:56:13.396Z,48.54
2022-08-26T19:58:40.269Z,48.84
2022-08-26T20:01:07.711Z,48.94
2022-08-26T20:03:35.615Z,49.36
2022-08-26T20:06:03.246Z,49.47
2022-08-26T20:08:29.767Z,49.65
2022-08-26T20:10:59.301Z,49.72
2022-08-26T20:13:25.595Z,50.12
2022-08-26T20:15:52.012Z,50.35
2022-08-26T20:18:36.981Z,50.40
2022-08-26T20:21:22.138Z,50.68
2022-08-26T20:23:50.759Z,50.90
2022-08-26T20:26:17.838Z,51.03
2022-08-26T20:28:44.474Z,51.11
2022-08-26T20:31:10.966Z,51.41
2022-08-26T20:33:46.380Z,51.55
2022-08-26T20:36:14.650Z,51.57
2022-08-26T20:38:41.063Z,51.95
2022-08-26T20:41:07.546Z,52.11
2022-08-26T20:43:34.001Z,52.26
2022-08-26T20:46:00.952Z,52.55
2022-08-26T20:48:27.816Z,52.51
2022-08-26T20:51:01.012Z,52.54
2022-08-26T20:53:28.725Z,52.76
2022-08-26T20:55:59.710Z,52.95
2022-08-26T20:58:26.132Z,52.98
2022-08-26T21:00:52.485Z,53.06
2022-08-26T21:03:18.959Z,53.20
2022-08-26T21:05:45.476Z,53.30
2022-08-26T21:08:12.593Z,53.80
2022-08-26T21:10:39.132Z,53.73
2022-08-26T21:13:06.133Z,53.75
2022-08-26T21:15:32.987Z,54.08
2022-08-26T21:18:00.035Z,54.04
2022-08-26T21:20:26.345Z,54.22
2022-08-26T21:22:52.875Z,54.44
2022-08-26T21:25:19.413Z,54.48
2022-08-26T21:27:47.754Z,54.49
2022-08-26T21:30:15.380Z,54.66
2022-08-26T21:32:41.878Z,54.74
2022-08-26T21:35:09.845Z,54.86
2022-08-26T21:37:36.181Z,55.00
2022-08-26T21:40:04.414Z,55.32
2022-08-26T21:42:32.696Z,55.46
2022-08-26T21:44:59.883Z,55.41
2022-08-26T21:47:26.316Z,55.68
2022-08-26T21:49:53.030Z,55.81
2022-08-26T21:52:20.773Z,55.84
2022-08-26T21:54:49.271Z,55.95
2022-08-26T21:57:16.874Z,56.12
2022-08-26T21:59:43.157Z,56.16
2022-08-26T22:02:10.979Z,56.41
2022-08-26T22:04:37.593Z,56.32
2022-08-26T22:07:04.313Z,56.48
2022-08-26T22:09:31.128Z,56.67
2022-08-26T22:11:58.372Z,56.78
2022-08-26T22:14:29.847Z,57.00
2022-08-26T22:16:58.247Z,57.08
2022-08-26T22:19:25.685Z,56.98
2022-08-26T22:21:53.706Z,57.06
2022-08-26T22:24:22.875Z,57.25
2022-08-26T22:26:49.382Z,57.38
2022-08-26T22:29:16.732Z,57.51
2022-08-26T22:31:43.232Z,57.49
2022-08-26T22:34:12.133Z,57.76
2022-08-26T22:36:43.045Z,57.74
2022-08-26T22:39:16.239Z,57.79
2022-08-26T22:41:43.565Z,57.96
2022-08-26T22:44:11.002Z,58.09
2022-08-26T22:46:37.924Z,58.06
2022-08-26T22:49:05.771Z,58.34
2022-08-26T22:51:32.591Z,58.38
2022-08-26T22:53:58.880Z,58.47
2022-08-26T22:56:25.652Z,58.54
2022-08-26T22:58:52.014Z,58.64
2022-08-26T23:01:18.455Z,58.80
2022-08-26T23:03:45.296Z,58.78
2022-08-26T23:06:11.811Z,58.95
2022-08-26T23:08:38.790Z,58.95
2022-08-26T23:11:09.760Z,58.97
2022-08-26T23:13:36.524Z,59.13
2022-08-26T23:16:06.696Z,59.28
2022-08-26T23:18:33.116Z,59.28
2022-08-26T23:20:59.421Z,59.37
2022-08-26T23:23:26.982Z,59.50
2022-08-26T23:25:55.734Z,59.50
2022-08-26T23:28:22.677Z,59.68
2022-08-26T23:30:49.407Z,59.86
2022-08-26T23:33:15.846Z,59.79
2022-08-26T23:35:42.165Z,59.95
2022-08-26T23:38:09.218Z,59.88
2022-08-26T23:40:38.134Z,60.16
2022-08-26T23:43:06.794Z,60.14
2022-08-26T23:45:33.963Z,60.27
2022-08-26T23:48:00.687Z,60.32
2022-08-26T23:50:48.199Z,60.47
2022-08-26T23:53:19.237Z,60.35
2022-08-26T23:55:48.947Z,60.53
2022-08-26T23:58:16.937Z,60.65
